sensor_id;sensor_type;location;lat;lon;timestamp;P1;durP1;ratioP1;P2;durP2;ratioP2
11791;SDS011;5953;52.372;9.918;2023-08-30T00:00:39;4.43;;;2.83;;
11791;SDS011;5953;52.372;9.918;2023-08-30T00:03:07;4.13;;;2.57;;
11791;SDS011;5953;52.372;9.918;2023-08-30T00:05:39;4.67;;;2.63;;
11791;SDS011;5953;52.372;9.918;2023-08-30T00:08:08;4.17;;;3.00;;
11791;SDS011;5953;52.372;9.918;2023-08-30T00:10:36;3.83;;;2.80;;
11791;SDS011;5953;52.372;9.918;2023-08-30T00:13:04;5.83;;;2.50;;
11791;SDS011;5953;52.372;9.918;2023-08-30T00:15:32;3.53;;;2.33;;
11791;SDS011;5953;52.372;9.918;2023-08-30T00:18:00;3.43;;;2.47;;
11791;SDS011;5953;52.372;9.918;2023-08-30T00:20:28;3.90;;;2.30;;
11791;SDS011;5953;52.372;9.918;2023-08-30T00:22:57;3.67;;;2.47;;
11791;SDS011;5953;52.372;9.918;2023-08-30T00:25:25;4.37;;;2.70;;
11791;SDS011;5953;52.372;9.918;2023-08-30T00:27:53;2.30;;;2.07;;
11791;SDS011;5953;52.372;9.918;2023-08-30T00:30:20;2.80;;;2.60;;
11791;SDS011;5953;52.372;9.918;2023-08-30T00:32:48;3.33;;;2.40;;
11791;SDS011;5953;52.372;9.918;2023-08-30T00:35:16;2.67;;;2.47;;
11791;SDS011;5953;52.372;9.918;2023-08-30T00:37:44;2.40;;;2.20;;
11791;SDS011;5953;52.372;9.918;2023-08-30T00:40:13;2.73;;;2.40;;
11791;SDS011;5953;52.372;9.918;2023-08-30T00:42:41;3.73;;;2.27;;
11791;SDS011;5953;52.372;9.918;2023-08-30T00:45:09;3.97;;;2.53;;
11791;SDS011;5953;52.372;9.918;2023-08-30T00:47:37;3.20;;;2.60;;
11791;SDS011;5953;52.372;9.918;2023-08-30T00:50:05;3.90;;;2.57;;
11791;SDS011;5953;52.372;9.918;2023-08-30T00:52:34;3.13;;;2.60;;
11791;SDS011;5953;52.372;9.918;2023-08-30T00:55:02;3.73;;;2.50;;
11791;SDS011;5953;52.372;9.918;2023-08-30T00:57:31;3.27;;;2.50;;
11791;SDS011;5953;52.372;9.918;2023-08-30T00:59:59;3.07;;;2.10;;
11791;SDS011;5953;52.372;9.918;2023-08-30T01:02:27;3.87;;;2.67;;
11791;SDS011;5953;52.372;9.918;2023-08-30T01:04:55;4.27;;;2.43;;
11791;SDS011;5953;52.372;9.918;2023-08-30T01:07:23;2.60;;;2.20;;
11791;SDS011;5953;52.372;9.918;2023-08-30T01:09:51;4.00;;;2.30;;
11791;SDS011;5953;52.372;9.918;2023-08-30T01:12:20;3.53;;;2.53;;
11791;SDS011;5953;52.372;9.918;2023-08-30T01:14:54;3.63;;;3.27;;
11791;SDS011;5953;52.372;9.918;2023-08-30T01:17:25;7.23;;;2.67;;
11791;SDS011;5953;52.372;9.918;2023-08-30T01:19:57;4.63;;;2.53;;
11791;SDS011;5953;52.372;9.918;2023-08-30T01:22:35;3.20;;;2.63;;
11791;SDS011;5953;52.372;9.918;2023-08-30T01:25:14;6.53;;;2.83;;
11791;SDS011;5953;52.372;9.918;2023-08-30T01:27:48;2.27;;;2.00;;
11791;SDS011;5953;52.372;9.918;2023-08-30T01:30:18;4.30;;;2.60;;
11791;SDS011;5953;52.372;9.918;2023-08-30T01:32:47;2.50;;;2.30;;
11791;SDS011;5953;52.372;9.918;2023-08-30T01:35:17;3.27;;;2.50;;
11791;SDS011;5953;52.372;9.918;2023-08-30T01:37:46;2.47;;;2.33;;
11791;SDS011;5953;52.372;9.918;2023-08-30T01:40:14;4.13;;;2.70;;
11791;SDS011;5953;52.372;9.918;2023-08-30T01:42:43;4.00;;;2.60;;
11791;SDS011;5953;52.372;9.918;2023-08-30T01:45:14;3.00;;;2.70;;
11791;SDS011;5953;52.372;9.918;2023-08-30T01:47:42;2.73;;;2.47;;
11791;SDS011;5953;52.372;9.918;2023-08-30T01:50:10;2.60;;;2.40;;
11791;SDS011;5953;52.372;9.918;2023-08-30T01:52:39;4.60;;;2.37;;
11791;SDS011;5953;52.372;9.918;2023-08-30T01:55:08;2.93;;;2.50;;
11791;SDS011;5953;52.372;9.918;2023-08-30T01:57:37;2.40;;;2.20;;
11791;SDS011;5953;52.372;9.918;2023-08-30T02:00:05;3.77;;;2.30;;
11791;SDS011;5953;52.372;9.918;2023-08-30T02:02:35;3.20;;;2.90;;
11791;SDS011;5953;52.372;9.918;2023-08-30T02:05:03;3.10;;;2.80;;
11791;SDS011;5953;52.372;9.918;2023-08-30T02:07:33;3.40;;;2.90;;
11791;SDS011;5953;52.372;9.918;2023-08-30T02:10:06;3.13;;;2.70;;
11791;SDS011;5953;52.372;9.918;2023-08-30T02:12:37;3.17;;;2.83;;
11791;SDS011;5953;52.372;9.918;2023-08-30T02:15:09;3.07;;;2.70;;
11791;SDS011;5953;52.372;9.918;2023-08-30T02:17:40;2.77;;;2.47;;
11791;SDS011;5953;52.372;9.918;2023-08-30T02:20:09;3.13;;;2.83;;
11791;SDS011;5953;52.372;9.918;2023-08-30T02:22:37;3.80;;;3.20;;
11791;SDS011;5953;52.372;9.918;2023-08-30T02:25:05;3.70;;;2.70;;
11791;SDS011;5953;52.372;9.918;2023-08-30T02:27:34;4.97;;;2.70;;
11791;SDS011;5953;52.372;9.918;2023-08-30T02:30:01;2.60;;;2.40;;
11791;SDS011;5953;52.372;9.918;2023-08-30T02:32:29;2.80;;;2.60;;
11791;SDS011;5953;52.372;9.918;2023-08-30T02:34:59;4.70;;;2.60;;
11791;SDS011;5953;52.372;9.918;2023-08-30T02:37:26;3.30;;;2.50;;
11791;SDS011;5953;52.372;9.918;2023-08-30T02:39:54;3.10;;;2.80;;
11791;SDS011;5953;52.372;9.918;2023-08-30T02:42:22;2.60;;;2.40;;
11791;SDS011;5953;52.372;9.918;2023-08-30T02:44:51;2.63;;;2.43;;
11791;SDS011;5953;52.372;9.918;2023-08-30T02:47:18;2.80;;;2.60;;
11791;SDS011;5953;52.372;9.918;2023-08-30T02:49:46;3.20;;;2.30;;
11791;SDS011;5953;52.372;9.918;2023-08-30T02:52:16;2.77;;;2.57;;
11791;SDS011;5953;52.372;9.918;2023-08-30T02:54:44;2.87;;;2.67;;
11791;SDS011;5953;52.372;9.918;2023-08-30T02:57:12;3.07;;;2.27;;
11791;SDS011;5953;52.372;9.918;2023-08-30T02:59:40;3.57;;;2.40;;
11791;SDS011;5953;52.372;9.918;2023-08-30T03:02:08;2.77;;;2.57;;
11791;SDS011;5953;52.372;9.918;2023-08-30T03:04:36;3.00;;;2.60;;
11791;SDS011;5953;52.372;9.918;2023-08-30T03:07:05;3.40;;;2.50;;
11791;SDS011;5953;52.372;9.918;2023-08-30T03:09:34;2.57;;;2.37;;
11791;SDS011;5953;52.372;9.918;2023-08-30T03:12:02;2.83;;;2.60;;
11791;SDS011;5953;52.372;9.918;2023-08-30T03:14:30;3.27;;;2.97;;
11791;SDS011;5953;52.372;9.918;2023-08-30T03:16:57;3.33;;;3.00;;
11791;SDS011;5953;52.372;9.918;2023-08-30T03:19:25;2.67;;;2.47;;
11791;SDS011;5953;52.372;9.918;2023-08-30T03:21:53;3.33;;;3.03;;
11791;SDS011;5953;52.372;9.918;2023-08-30T03:24:21;3.20;;;2.97;;
11791;SDS011;5953;52.372;9.918;2023-08-30T03:26:50;3.63;;;3.33;;
11791;SDS011;5953;52.372;9.918;2023-08-30T03:29:18;4.07;;;3.07;;
11791;SDS011;5953;52.372;9.918;2023-08-30T03:31:46;4.37;;;3.00;;
11791;SDS011;5953;52.372;9.918;2023-08-30T03:34:13;5.40;;;3.20;;
11791;SDS011;5953;52.372;9.918;2023-08-30T03:36:41;3.90;;;3.60;;
11791;SDS011;5953;52.372;9.918;2023-08-30T03:39:10;4.33;;;4.00;;
11791;SDS011;5953;52.372;9.918;2023-08-30T03:41:38;3.93;;;3.30;;
11791;SDS011;5953;52.372;9.918;2023-08-30T03:44:08;4.20;;;3.90;;
11791;SDS011;5953;52.372;9.918;2023-08-30T03:46:35;6.33;;;3.93;;
11791;SDS011;5953;52.372;9.918;2023-08-30T03:49:03;3.80;;;3.50;;
11791;SDS011;5953;52.372;9.918;2023-08-30T03:51:31;4.43;;;3.77;;
11791;SDS011;5953;52.372;9.918;2023-08-30T03:53:59;4.33;;;3.90;;
11791;SDS011;5953;52.372;9.918;2023-08-30T03:56:27;4.10;;;3.33;;
11791;SDS011;5953;52.372;9.918;2023-08-30T03:58:55;3.83;;;3.07;;
11791;SDS011;5953;52.372;9.918;2023-08-30T04:01:24;3.80;;;3.50;;
11791;SDS011;5953;52.372;9.918;2023-08-30T04:03:52;4.00;;;3.70;;
11791;SDS011;5953;52.372;9.918;2023-08-30T04:06:20;4.20;;;3.87;;
11791;SDS011;5953;52.372;9.918;2023-08-30T04:08:48;5.90;;;3.90;;
11791;SDS011;5953;52.372;9.918;2023-08-30T04:11:16;4.40;;;3.97;;
11791;SDS011;5953;52.372;9.918;2023-08-30T04:13:44;4.13;;;3.83;;
11791;SDS011;5953;52.372;9.918;2023-08-30T04:16:12;7.80;;;4.00;;
11791;SDS011;5953;52.372;9.918;2023-08-30T04:18:41;4.73;;;3.83;;
11791;SDS011;5953;52.372;9.918;2023-08-30T04:21:08;4.13;;;3.47;;
11791;SDS011;5953;52.372;9.918;2023-08-30T04:23:36;5.87;;;4.10;;
11791;SDS011;5953;52.372;9.918;2023-08-30T04:28:32;4.13;;;3.63;;
11791;SDS011;5953;52.372;9.918;2023-08-30T04:30:59;5.33;;;4.53;;
11791;SDS011;5953;52.372;9.918;2023-08-30T04:33:27;5.10;;;4.60;;
11791;SDS011;5953;52.372;9.918;2023-08-30T04:35:56;5.47;;;4.90;;
11791;SDS011;5953;52.372;9.918;2023-08-30T04:38:27;4.43;;;4.13;;
11791;SDS011;5953;52.372;9.918;2023-08-30T04:40:56;4.90;;;4.13;;
11791;SDS011;5953;52.372;9.918;2023-08-30T04:43:29;5.20;;;4.23;;
11791;SDS011;5953;52.372;9.918;2023-08-30T04:45:56;4.63;;;4.13;;
11791;SDS011;5953;52.372;9.918;2023-08-30T04:48:24;4.90;;;4.50;;
11791;SDS011;5953;52.372;9.918;2023-08-30T04:50:59;5.50;;;4.90;;
11791;SDS011;5953;52.372;9.918;2023-08-30T04:53:27;5.13;;;4.53;;
11791;SDS011;5953;52.372;9.918;2023-08-30T04:55:55;4.50;;;4.13;;
11791;SDS011;5953;52.372;9.918;2023-08-30T04:58:23;5.40;;;4.97;;
11791;SDS011;5953;52.372;9.918;2023-08-30T05:00:51;6.33;;;5.10;;
11791;SDS011;5953;52.372;9.918;2023-08-30T05:03:18;5.33;;;4.93;;
11791;SDS011;5953;52.372;9.918;2023-08-30T05:05:46;5.30;;;4.80;;
11791;SDS011;5953;52.372;9.918;2023-08-30T05:08:15;6.37;;;5.77;;
11791;SDS011;5953;52.372;9.918;2023-08-30T05:10:43;5.53;;;5.03;;
11791;SDS011;5953;52.372;9.918;2023-08-30T05:13:15;5.50;;;5.00;;
11791;SDS011;5953;52.372;9.918;2023-08-30T05:15:43;5.27;;;4.77;;
11791;SDS011;5953;52.372;9.918;2023-08-30T05:18:11;5.40;;;4.90;;
11791;SDS011;5953;52.372;9.918;2023-08-30T05:20:39;7.33;;;4.87;;
11791;SDS011;5953;52.372;9.918;2023-08-30T05:23:06;6.63;;;4.73;;
11791;SDS011;5953;52.372;9.918;2023-08-30T05:25:36;7.50;;;5.10;;
11791;SDS011;5953;52.372;9.918;2023-08-30T05:28:04;5.70;;;4.97;;
11791;SDS011;5953;52.372;9.918;2023-08-30T05:30:32;5.93;;;5.43;;
11791;SDS011;5953;52.372;9.918;2023-08-30T05:33:00;5.53;;;5.03;;
11791;SDS011;5953;52.372;9.918;2023-08-30T05:35:28;5.37;;;4.77;;
11791;SDS011;5953;52.372;9.918;2023-08-30T05:37:56;5.10;;;4.60;;
11791;SDS011;5953;52.372;9.918;2023-08-30T05:40:24;5.70;;;5.20;;
11791;SDS011;5953;52.372;9.918;2023-08-30T05:42:53;5.13;;;4.70;;
11791;SDS011;5953;52.372;9.918;2023-08-30T05:45:21;6.00;;;5.40;;
11791;SDS011;5953;52.372;9.918;2023-08-30T05:47:49;5.60;;;5.10;;
11791;SDS011;5953;52.372;9.918;2023-08-30T05:50:17;8.87;;;5.43;;
11791;SDS011;5953;52.372;9.918;2023-08-30T05:52:44;5.83;;;4.87;;
11791;SDS011;5953;52.372;9.918;2023-08-30T05:55:12;5.43;;;4.70;;
11791;SDS011;5953;52.372;9.918;2023-08-30T05:57:40;5.50;;;5.00;;
11791;SDS011;5953;52.372;9.918;2023-08-30T06:00:10;6.07;;;5.57;;
11791;SDS011;5953;52.372;9.918;2023-08-30T06:02:39;6.30;;;5.70;;
11791;SDS011;5953;52.372;9.918;2023-08-30T06:05:07;6.10;;;5.57;;
11791;SDS011;5953;52.372;9.918;2023-08-30T06:07:37;5.47;;;4.97;;
11791;SDS011;5953;52.372;9.918;2023-08-30T06:10:05;5.83;;;4.77;;
11791;SDS011;5953;52.372;9.918;2023-08-30T06:12:33;5.80;;;5.23;;
11791;SDS011;5953;52.372;9.918;2023-08-30T06:15:01;6.40;;;5.27;;
11791;SDS011;5953;52.372;9.918;2023-08-30T06:17:31;6.73;;;6.10;;
11791;SDS011;5953;52.372;9.918;2023-08-30T06:19:59;6.80;;;5.47;;
11791;SDS011;5953;52.372;9.918;2023-08-30T06:22:27;7.03;;;5.47;;
11791;SDS011;5953;52.372;9.918;2023-08-30T06:24:55;7.03;;;5.20;;
11791;SDS011;5953;52.372;9.918;2023-08-30T06:27:23;5.27;;;4.43;;
11791;SDS011;5953;52.372;9.918;2023-08-30T06:29:51;5.63;;;5.13;;
11791;SDS011;5953;52.372;9.918;2023-08-30T06:32:18;5.03;;;4.53;;
11791;SDS011;5953;52.372;9.918;2023-08-30T06:34:50;4.73;;;4.33;;
11791;SDS011;5953;52.372;9.918;2023-08-30T06:37:18;5.20;;;4.40;;
11791;SDS011;5953;52.372;9.918;2023-08-30T06:39:45;4.87;;;4.37;;
11791;SDS011;5953;52.372;9.918;2023-08-30T06:42:14;6.30;;;4.80;;
11791;SDS011;5953;52.372;9.918;2023-08-30T06:44:42;4.97;;;4.47;;
11791;SDS011;5953;52.372;9.918;2023-08-30T06:47:10;7.87;;;5.27;;
11791;SDS011;5953;52.372;9.918;2023-08-30T06:49:38;7.50;;;4.70;;
11791;SDS011;5953;52.372;9.918;2023-08-30T06:52:07;6.97;;;5.03;;
11791;SDS011;5953;52.372;9.918;2023-08-30T06:54:35;8.37;;;5.00;;
11791;SDS011;5953;52.372;9.918;2023-08-30T06:57:03;5.13;;;4.67;;
11791;SDS011;5953;52.372;9.918;2023-08-30T06:59:33;8.13;;;4.80;;
11791;SDS011;5953;52.372;9.918;2023-08-30T07:02:01;4.77;;;4.37;;
11791;SDS011;5953;52.372;9.918;2023-08-30T07:04:29;5.73;;;4.87;;
11791;SDS011;5953;52.372;9.918;2023-08-30T07:06:57;4.73;;;4.33;;
11791;SDS011;5953;52.372;9.918;2023-08-30T07:09:26;4.83;;;4.40;;
11791;SDS011;5953;52.372;9.918;2023-08-30T07:11:55;5.13;;;4.43;;
11791;SDS011;5953;52.372;9.918;2023-08-30T07:14:23;5.20;;;4.70;;
11791;SDS011;5953;52.372;9.918;2023-08-30T07:16:52;6.33;;;5.20;;
11791;SDS011;5953;52.372;9.918;2023-08-30T07:19:20;7.73;;;4.90;;
11791;SDS011;5953;52.372;9.918;2023-08-30T07:21:48;6.00;;;4.57;;
11791;SDS011;5953;52.372;9.918;2023-08-30T07:24:15;5.73;;;5.17;;
11791;SDS011;5953;52.372;9.918;2023-08-30T07:26:45;5.30;;;4.60;;
11791;SDS011;5953;52.372;9.918;2023-08-30T07:29:12;5.93;;;5.20;;
11791;SDS011;5953;52.372;9.918;2023-08-30T07:31:42;5.97;;;5.37;;
11791;SDS011;5953;52.372;9.918;2023-08-30T07:34:10;6.03;;;4.93;;
11791;SDS011;5953;52.372;9.918;2023-08-30T07:36:38;6.37;;;5.67;;
11791;SDS011;5953;52.372;9.918;2023-08-30T07:39:13;5.70;;;5.20;;
11791;SDS011;5953;52.372;9.918;2023-08-30T07:41:41;6.00;;;5.40;;
11791;SDS011;5953;52.372;9.918;2023-08-30T07:44:10;7.43;;;5.93;;
11791;SDS011;5953;52.372;9.918;2023-08-30T07:46:38;6.17;;;4.97;;
11791;SDS011;5953;52.372;9.918;2023-08-30T07:49:06;6.37;;;5.77;;
11791;SDS011;5953;52.372;9.918;2023-08-30T07:51:33;5.37;;;4.60;;
11791;SDS011;5953;52.372;9.918;2023-08-30T07:54:01;8.27;;;5.93;;
11791;SDS011;5953;52.372;9.918;2023-08-30T07:56:31;7.80;;;5.77;;
11791;SDS011;5953;52.372;9.918;2023-08-30T07:58:58;6.77;;;6.10;;
11791;SDS011;5953;52.372;9.918;2023-08-30T08:01:27;6.87;;;5.17;;
11791;SDS011;5953;52.372;9.918;2023-08-30T08:03:55;6.57;;;5.77;;
11791;SDS011;5953;52.372;9.918;2023-08-30T08:06:33;7.80;;;6.73;;
11791;SDS011;5953;52.372;9.918;2023-08-30T08:09:03;9.23;;;6.40;;
11791;SDS011;5953;52.372;9.918;2023-08-30T08:11:31;7.67;;;6.60;;
11791;SDS011;5953;52.372;9.918;2023-08-30T08:13:59;7.27;;;5.87;;
11791;SDS011;5953;52.372;9.918;2023-08-30T08:16:30;8.37;;;6.37;;
11791;SDS011;5953;52.372;9.918;2023-08-30T08:19:00;8.57;;;6.30;;
11791;SDS011;5953;52.372;9.918;2023-08-30T08:21:28;9.20;;;6.73;;
11791;SDS011;5953;52.372;9.918;2023-08-30T08:23:55;6.57;;;5.90;;
11791;SDS011;5953;52.372;9.918;2023-08-30T08:26:23;8.13;;;6.87;;
11791;SDS011;5953;52.372;9.918;2023-08-30T08:28:51;8.07;;;6.60;;
11791;SDS011;5953;52.372;9.918;2023-08-30T08:31:20;9.23;;;7.23;;
11791;SDS011;5953;52.372;9.918;2023-08-30T08:33:51;7.33;;;6.33;;
11791;SDS011;5953;52.372;9.918;2023-08-30T08:36:32;13.73;;;7.43;;
11791;SDS011;5953;52.372;9.918;2023-08-30T08:39:00;8.70;;;6.83;;
11791;SDS011;5953;52.372;9.918;2023-08-30T08:41:32;8.47;;;6.90;;
11791;SDS011;5953;52.372;9.918;2023-08-30T08:44:05;7.90;;;7.10;;
11791;SDS011;5953;52.372;9.918;2023-08-30T08:46:34;8.73;;;7.33;;
11791;SDS011;5953;52.372;9.918;2023-08-30T08:49:08;10.23;;;8.43;;
11791;SDS011;5953;52.372;9.918;2023-08-30T08:51:37;9.10;;;7.93;;
11791;SDS011;5953;52.372;9.918;2023-08-30T08:54:05;8.60;;;7.47;;
11791;SDS011;5953;52.372;9.918;2023-08-30T08:56:35;10.20;;;7.43;;
11791;SDS011;5953;52.372;9.918;2023-08-30T08:59:04;9.23;;;8.10;;
11791;SDS011;5953;52.372;9.918;2023-08-30T09:01:34;8.27;;;7.47;;
11791;SDS011;5953;52.372;9.918;2023-08-30T09:04:07;9.50;;;8.53;;
11791;SDS011;5953;52.372;9.918;2023-08-30T09:06:36;9.67;;;8.67;;
11791;SDS011;5953;52.372;9.918;2023-08-30T09:09:06;11.93;;;8.30;;
11791;SDS011;5953;52.372;9.918;2023-08-30T09:11:35;7.97;;;7.17;;
11791;SDS011;5953;52.372;9.918;2023-08-30T09:14:16;8.53;;;7.70;;
11791;SDS011;5953;52.372;9.918;2023-08-30T09:16:53;9.07;;;8.10;;
11791;SDS011;5953;52.372;9.918;2023-08-30T09:19:23;8.47;;;7.57;;
11791;SDS011;5953;52.372;9.918;2023-08-30T09:21:51;10.83;;;8.70;;
11791;SDS011;5953;52.372;9.918;2023-08-30T09:24:19;8.47;;;7.67;;
11791;SDS011;5953;52.372;9.918;2023-08-30T09:26:47;9.33;;;8.30;;
11791;SDS011;5953;52.372;9.918;2023-08-30T09:29:16;9.53;;;8.07;;
11791;SDS011;5953;52.372;9.918;2023-08-30T09:31:50;9.20;;;7.73;;
11791;SDS011;5953;52.372;9.918;2023-08-30T09:34:23;10.57;;;7.80;;
11791;SDS011;5953;52.372;9.918;2023-08-30T09:36:51;10.50;;;8.55;;
11791;SDS011;5953;52.372;9.918;2023-08-30T09:39:20;8.43;;;7.60;;
11791;SDS011;5953;52.372;9.918;2023-08-30T09:41:50;8.73;;;7.90;;
11791;SDS011;5953;52.372;9.918;2023-08-30T09:44:18;10.05;;;8.93;;
11791;SDS011;5953;52.372;9.918;2023-08-30T09:46:49;9.47;;;7.63;;
11791;SDS011;5953;52.372;9.918;2023-08-30T09:49:19;9.47;;;8.40;;
11791;SDS011;5953;52.372;9.918;2023-08-30T09:51:50;8.20;;;7.07;;
11791;SDS011;5953;52.372;9.918;2023-08-30T09:54:21;9.70;;;8.03;;
11791;SDS011;5953;52.372;9.918;2023-08-30T09:56:53;11.53;;;9.13;;
11791;SDS011;5953;52.372;9.918;2023-08-30T09:59:23;9.43;;;8.40;;
11791;SDS011;5953;52.372;9.918;2023-08-30T10:01:52;9.97;;;8.97;;
11791;SDS011;5953;52.372;9.918;2023-08-30T10:04:20;9.43;;;8.33;;
11791;SDS011;5953;52.372;9.918;2023-08-30T10:06:50;10.40;;;9.00;;
11791;SDS011;5953;52.372;9.918;2023-08-30T10:09:19;9.95;;;8.95;;
11791;SDS011;5953;52.372;9.918;2023-08-30T10:11:48;10.00;;;8.52;;
11791;SDS011;5953;52.372;9.918;2023-08-30T10:14:16;11.30;;;9.97;;
11791;SDS011;5953;52.372;9.918;2023-08-30T10:16:45;13.27;;;10.93;;
11791;SDS011;5953;52.372;9.918;2023-08-30T10:19:15;9.63;;;8.73;;
11791;SDS011;5953;52.372;9.918;2023-08-30T10:21:44;9.07;;;8.20;;
11791;SDS011;5953;52.372;9.918;2023-08-30T10:24:16;10.10;;;8.37;;
11791;SDS011;5953;52.372;9.918;2023-08-30T10:27:03;9.40;;;8.40;;
11791;SDS011;5953;52.372;9.918;2023-08-30T10:29:33;9.75;;;8.88;;
11791;SDS011;5953;52.372;9.918;2023-08-30T10:32:03;9.93;;;8.93;;
11791;SDS011;5953;52.372;9.918;2023-08-30T10:34:31;10.47;;;8.00;;
11791;SDS011;5953;52.372;9.918;2023-08-30T10:36:59;9.40;;;8.50;;
11791;SDS011;5953;52.372;9.918;2023-08-30T10:39:34;8.97;;;7.83;;
11791;SDS011;5953;52.372;9.918;2023-08-30T10:42:09;13.53;;;8.77;;
11791;SDS011;5953;52.372;9.918;2023-08-30T10:44:46;9.07;;;8.13;;
11791;SDS011;5953;52.372;9.918;2023-08-30T10:47:36;8.77;;;7.93;;
11791;SDS011;5953;52.372;9.918;2023-08-30T10:50:06;8.50;;;7.53;;
11791;SDS011;5953;52.372;9.918;2023-08-30T10:52:35;9.27;;;8.20;;
11791;SDS011;5953;52.372;9.918;2023-08-30T10:55:07;9.13;;;8.23;;
11791;SDS011;5953;52.372;9.918;2023-08-30T10:57:37;9.53;;;8.53;;
11791;SDS011;5953;52.372;9.918;2023-08-30T11:00:11;11.57;;;9.07;;
11791;SDS011;5953;52.372;9.918;2023-08-30T11:02:43;11.27;;;9.93;;
11791;SDS011;5953;52.372;9.918;2023-08-30T11:05:11;8.47;;;7.67;;
11791;SDS011;5953;52.372;9.918;2023-08-30T11:07:40;10.30;;;9.20;;
11791;SDS011;5953;52.372;9.918;2023-08-30T11:10:09;10.10;;;9.17;;
11791;SDS011;5953;52.372;9.918;2023-08-30T11:12:39;8.93;;;8.03;;
11791;SDS011;5953;52.372;9.918;2023-08-30T11:15:09;11.20;;;8.43;;
11791;SDS011;5953;52.372;9.918;2023-08-30T11:17:37;8.83;;;8.03;;
11791;SDS011;5953;52.372;9.918;2023-08-30T11:20:06;11.20;;;10.10;;
11791;SDS011;5953;52.372;9.918;2023-08-30T11:22:35;10.43;;;9.37;;
11791;SDS011;5953;52.372;9.918;2023-08-30T11:25:05;9.43;;;8.43;;
11791;SDS011;5953;52.372;9.918;2023-08-30T11:27:34;9.53;;;8.63;;
11791;SDS011;5953;52.372;9.918;2023-08-30T11:30:02;9.77;;;8.60;;
11791;SDS011;5953;52.372;9.918;2023-08-30T11:32:32;9.83;;;8.00;;
11791;SDS011;5953;52.372;9.918;2023-08-30T11:35:00;10.73;;;8.47;;
11791;SDS011;5953;52.372;9.918;2023-08-30T11:37:28;8.50;;;7.73;;
11791;SDS011;5953;52.372;9.918;2023-08-30T11:39:56;10.10;;;8.30;;
11791;SDS011;5953;52.372;9.918;2023-08-30T11:42:24;8.50;;;7.70;;
11791;SDS011;5953;52.372;9.918;2023-08-30T11:44:54;7.60;;;6.63;;
11791;SDS011;5953;52.372;9.918;2023-08-30T11:47:22;8.37;;;7.20;;
11791;SDS011;5953;52.372;9.918;2023-08-30T11:49:52;7.63;;;6.83;;
11791;SDS011;5953;52.372;9.918;2023-08-30T11:52:21;9.03;;;8.23;;
11791;SDS011;5953;52.372;9.918;2023-08-30T11:54:50;9.60;;;8.35;;
11791;SDS011;5953;52.372;9.918;2023-08-30T11:57:19;8.40;;;7.50;;
11791;SDS011;5953;52.372;9.918;2023-08-30T11:59:47;10.23;;;8.20;;
11791;SDS011;5953;52.372;9.918;2023-08-30T12:02:18;7.13;;;6.53;;
11791;SDS011;5953;52.372;9.918;2023-08-30T12:04:47;9.00;;;6.95;;
11791;SDS011;5953;52.372;9.918;2023-08-30T12:07:21;8.07;;;7.30;;
11791;SDS011;5953;52.372;9.918;2023-08-30T12:09:50;7.20;;;6.40;;
11791;SDS011;5953;52.372;9.918;2023-08-30T12:12:18;7.53;;;6.53;;
11791;SDS011;5953;52.372;9.918;2023-08-30T12:14:54;6.90;;;6.20;;
11791;SDS011;5953;52.372;9.918;2023-08-30T12:17:23;7.73;;;7.03;;
11791;SDS011;5953;52.372;9.918;2023-08-30T12:19:57;7.57;;;6.70;;
11791;SDS011;5953;52.372;9.918;2023-08-30T12:22:34;7.87;;;6.13;;
11791;SDS011;5953;52.372;9.918;2023-08-30T12:25:03;7.63;;;6.90;;
11791;SDS011;5953;52.372;9.918;2023-08-30T12:27:32;6.57;;;5.97;;
11791;SDS011;5953;52.372;9.918;2023-08-30T12:29:59;7.20;;;6.30;;
11791;SDS011;5953;52.372;9.918;2023-08-30T12:32:31;7.63;;;6.87;;
11791;SDS011;5953;52.372;9.918;2023-08-30T12:34:58;7.13;;;6.43;;
11791;SDS011;5953;52.372;9.918;2023-08-30T12:37:26;8.02;;;7.25;;
11791;SDS011;5953;52.372;9.918;2023-08-30T12:39:54;7.87;;;7.07;;
11791;SDS011;5953;52.372;9.918;2023-08-30T12:42:22;9.70;;;8.50;;
11791;SDS011;5953;52.372;9.918;2023-08-30T12:44:50;8.07;;;7.37;;
11791;SDS011;5953;52.372;9.918;2023-08-30T12:47:18;6.30;;;5.80;;
11791;SDS011;5953;52.372;9.918;2023-08-30T12:49:48;8.50;;;7.67;;
11791;SDS011;5953;52.372;9.918;2023-08-30T12:52:17;8.50;;;7.53;;
11791;SDS011;5953;52.372;9.918;2023-08-30T12:54:45;8.13;;;6.30;;
11791;SDS011;5953;52.372;9.918;2023-08-30T12:57:17;6.57;;;5.97;;
11791;SDS011;5953;52.372;9.918;2023-08-30T12:59:44;6.37;;;5.77;;
11791;SDS011;5953;52.372;9.918;2023-08-30T13:02:13;5.65;;;5.03;;
11791;SDS011;5953;52.372;9.918;2023-08-30T13:04:41;5.33;;;4.93;;
11791;SDS011;5953;52.372;9.918;2023-08-30T13:07:10;5.43;;;4.97;;
11791;SDS011;5953;52.372;9.918;2023-08-30T13:09:37;5.87;;;4.77;;
11791;SDS011;5953;52.372;9.918;2023-08-30T13:12:06;5.97;;;5.47;;
11791;SDS011;5953;52.372;9.918;2023-08-30T13:14:34;5.63;;;5.05;;
11791;SDS011;5953;52.372;9.918;2023-08-30T13:17:01;8.35;;;6.65;;
11791;SDS011;5953;52.372;9.918;2023-08-30T13:19:30;7.30;;;6.57;;
11791;SDS011;5953;52.372;9.918;2023-08-30T13:21:57;6.53;;;5.60;;
11791;SDS011;5953;52.372;9.918;2023-08-30T13:24:27;7.43;;;6.70;;
11791;SDS011;5953;52.372;9.918;2023-08-30T13:26:54;7.28;;;6.65;;
11791;SDS011;5953;52.372;9.918;2023-08-30T13:29:22;8.05;;;7.00;;
11791;SDS011;5953;52.372;9.918;2023-08-30T13:31:50;9.63;;;8.30;;
11791;SDS011;5953;52.372;9.918;2023-08-30T13:34:18;7.57;;;6.87;;
11791;SDS011;5953;52.372;9.918;2023-08-30T13:36:45;6.93;;;6.32;;
11791;SDS011;5953;52.372;9.918;2023-08-30T13:39:13;5.70;;;5.20;;
11791;SDS011;5953;52.372;9.918;2023-08-30T13:41:42;5.80;;;5.20;;
11791;SDS011;5953;52.372;9.918;2023-08-30T13:44:10;8.45;;;5.55;;
11791;SDS011;5953;52.372;9.918;2023-08-30T13:46:38;7.00;;;6.30;;
11791;SDS011;5953;52.372;9.918;2023-08-30T13:49:06;6.30;;;5.70;;
11791;SDS011;5953;52.372;9.918;2023-08-30T13:51:34;6.33;;;5.10;;
11791;SDS011;5953;52.372;9.918;2023-08-30T13:54:03;6.07;;;4.53;;
11791;SDS011;5953;52.372;9.918;2023-08-30T13:56:31;6.13;;;4.68;;
11791;SDS011;5953;52.372;9.918;2023-08-30T13:59:00;7.03;;;5.05;;
11791;SDS011;5953;52.372;9.918;2023-08-30T14:01:28;4.15;;;3.85;;
11791;SDS011;5953;52.372;9.918;2023-08-30T14:03:56;5.22;;;4.72;;
11791;SDS011;5953;52.372;9.918;2023-08-30T14:06:24;7.03;;;4.82;;
11791;SDS011;5953;52.372;9.918;2023-08-30T14:08:51;5.78;;;3.97;;
11791;SDS011;5953;52.372;9.918;2023-08-30T14:11:20;3.67;;;3.33;;
11791;SDS011;5953;52.372;9.918;2023-08-30T14:13:49;6.10;;;3.30;;
11791;SDS011;5953;52.372;9.918;2023-08-30T14:16:19;4.07;;;3.67;;
11791;SDS011;5953;52.372;9.918;2023-08-30T14:18:52;4.38;;;3.58;;
11791;SDS011;5953;52.372;9.918;2023-08-30T14:21:20;3.67;;;2.80;;
11791;SDS011;5953;52.372;9.918;2023-08-30T14:23:48;4.10;;;3.70;;
11791;SDS011;5953;52.372;9.918;2023-08-30T14:26:15;4.75;;;3.75;;
11791;SDS011;5953;52.372;9.918;2023-08-30T14:28:43;5.50;;;3.47;;
11791;SDS011;5953;52.372;9.918;2023-08-30T14:31:11;3.93;;;3.63;;
11791;SDS011;5953;52.372;9.918;2023-08-30T14:33:41;4.20;;;3.80;;
11791;SDS011;5953;52.372;9.918;2023-08-30T14:36:11;4.07;;;3.23;;
11791;SDS011;5953;52.372;9.918;2023-08-30T14:38:39;5.23;;;4.03;;
11791;SDS011;5953;52.372;9.918;2023-08-30T14:41:07;4.63;;;3.30;;
11791;SDS011;5953;52.372;9.918;2023-08-30T14:43:35;4.72;;;3.35;;
11791;SDS011;5953;52.372;9.918;2023-08-30T14:46:03;3.63;;;3.30;;
11791;SDS011;5953;52.372;9.918;2023-08-30T14:48:38;4.20;;;3.30;;
11791;SDS011;5953;52.372;9.918;2023-08-30T14:51:08;4.88;;;3.65;;
11791;SDS011;5953;52.372;9.918;2023-08-30T14:53:35;3.63;;;3.33;;
11791;SDS011;5953;52.372;9.918;2023-08-30T14:56:03;7.22;;;3.50;;
11791;SDS011;5953;52.372;9.918;2023-08-30T14:58:34;5.33;;;3.80;;
11791;SDS011;5953;52.372;9.918;2023-08-30T15:01:03;5.33;;;3.77;;
11791;SDS011;5953;52.372;9.918;2023-08-30T15:03:33;4.70;;;4.30;;
11791;SDS011;5953;52.372;9.918;2023-08-30T15:06:02;6.43;;;4.57;;
11791;SDS011;5953;52.372;9.918;2023-08-30T15:08:30;4.87;;;4.00;;
11791;SDS011;5953;52.372;9.918;2023-08-30T15:10:58;5.60;;;4.40;;
11791;SDS011;5953;52.372;9.918;2023-08-30T15:13:26;5.93;;;4.63;;